Terminal Aerodrome Forecast
Issued by NWS Memphis, TN

Home | Current Version | Previous Version | Text Only | Print | Product List | Glossary On
Versions: 1 2 3 4 5 6 7 8 9 10 11 12
000
FTUS44 KMEG 241732
TAFMKL
TAF
KMKL 241732Z 2418/2518 14004KT P6SM FEW060 FEW250
     FM250000 00000KT P6SM SKC
      TEMPO 2510/2513 2SM BR
     FM251600 03004KT P6SM FEW060 FEW250
      AMD NOT SKED=

USA.gov is the U.S. government's official web portal to all federal, state and local government web resources and services.